Amiko Rickmers — V7ZT6 — position and weather

sailwx.info

Track history (hours):
 
Tides and Currents Weather Stations Pressure Air Temp Water Temp Dewpoint Dewpoint Depression Visibility Wind Speed Wind Dir Waves Ship Positions

Amiko Rickmers

Last reported at 2017-Nov-20 00:29 UTC. Time now 2017-Nov-20 15:49 UTC.
Position N 14°26' W 060°53'.

; draft 8.8 m.

Type: Cargo ship. MMSI: 538004910.

Date/timePositionNaut miles runAvg speedWind from/ knotsBaromVisibWave heightAir tempDewpointWater temp
2017-Nov-20 00:29N 14°26' W 060°53'0 0.0
2017-Nov-19 23:59N 14°26' W 060°53'0 0.0
2017-Nov-19 23:29N 14°26' W 060°53'0 0.1
2017-Nov-19 23:00N 14°26' W 060°53'0 0.3
2017-Nov-19 22:30N 14°27' W 060°54'2 3.6
2017-Nov-19 21:58N 14°28' W 060°52'0 0.5
2017-Nov-19 21:31N 14°28' W 060°52'0 0.7
2017-Nov-19 21:00N 14°28' W 060°52'2 3.2
2017-Nov-19 20:29N 14°26' W 060°53'0 0.2
2017-Nov-19 20:00N 14°26' W 060°53'0 0.2
2017-Nov-19 19:31N 14°26' W 060°53'0 0.1
2017-Nov-19 19:00N 14°26' W 060°53'0 0.0
2017-Nov-19 18:31N 14°26' W 060°53'0 0.0
2017-Nov-19 18:00N 14°26' W 060°53'0 0.0
2017-Nov-19 17:30N 14°26' W 060°53'0 0.0
2017-Nov-19 17:00N 14°26' W 060°53'0 0.0
2017-Nov-19 16:31N 14°26' W 060°53'0 0.0
2017-Nov-19 15:57N 14°26' W 060°53'0 0.0
2017-Nov-19 15:25N 14°26' W 060°53'0 0.0
2017-Nov-19 15:00N 14°26' W 060°53'0 0.0
2017-Nov-19 14:31N 14°26' W 060°53'0 0.0
2017-Nov-19 13:58N 14°26' W 060°53'0 0.0
2017-Nov-19 13:31N 14°26' W 060°53'0 0.0
2017-Nov-19 13:01N 14°26' W 060°53'0 0.0
2017-Nov-19 12:31N 14°26' W 060°53'0 0.0
2017-Nov-19 12:01N 14°26' W 060°53'0 0.0
2017-Nov-19 11:29N 14°26' W 060°53'0 0.0
2017-Nov-19 11:00N 14°26' W 060°53'0 0.0
2017-Nov-19 10:29N 14°26' W 060°53'0 0.0
2017-Nov-19 09:59N 14°26' W 060°53'0 0.0
2017-Nov-19 09:29N 14°26' W 060°53'0 0.0
2017-Nov-19 08:59N 14°26' W 060°53'0 0.0
2017-Nov-19 08:29N 14°26' W 060°53'0 0.0
2017-Nov-19 07:59N 14°26' W 060°53'0 0.0
2017-Nov-19 07:29N 14°26' W 060°53'0 0.0
2017-Nov-19 06:14N 14°26' W 060°53'0 0.1
2017-Nov-19 05:59N 14°26' W 060°53'0 0.1
2017-Nov-19 05:29N 14°26' W 060°53'0 0.0
2017-Nov-19 04:59N 14°26' W 060°53'0 0.0
2017-Nov-19 04:29N 14°26' W 060°53'0 0.0
2017-Nov-19 03:58N 14°26' W 060°53'0 0.0
2017-Nov-19 03:28N 14°26' W 060°53'0 0.0
2017-Nov-19 02:58N 14°26' W 060°53'2 4.1
2017-Nov-19 02:30N 14°28' W 060°52'0 0.6
2017-Nov-19 02:00N 14°28' W 060°52'1 2.4
2017-Nov-19 01:31N 14°27' W 060°53'1 1.1
2017-Nov-19 01:01N 14°27' W 060°53'2 3.2
2017-Nov-19 00:30N 14°28' W 060°52'2 4.0
2017-Nov-19 00:00N 14°26' W 060°53'0 0.0
2017-Nov-18 23:30N 14°26' W 060°53'0 0.0
2017-Nov-18 23:00N 14°26' W 060°53'0 0.0
2017-Nov-18 22:28N 14°26' W 060°53'0 0.0
2017-Nov-18 21:58N 14°26' W 060°53'0 0.0
2017-Nov-18 21:30N 14°26' W 060°53'0 0.0
2017-Nov-18 21:00N 14°26' W 060°53'0 0.0
2017-Nov-18 20:30N 14°26' W 060°53'0 0.0
2017-Nov-18 20:00N 14°26' W 060°53'1 2.3
2017-Nov-18 19:30N 14°27' W 060°53'1 2.1
2017-Nov-18 18:58N 14°26' W 060°53'0 0.0
2017-Nov-18 18:30N 14°26' W 060°53'0 1.0
2017-Nov-18 18:00N 14°27' W 060°54'0 0.9
2017-Nov-18 17:30N 14°26' W 060°53'0 0.1
2017-Nov-18 17:00N 14°26' W 060°53'0 0.1
2017-Nov-18 16:30N 14°26' W 060°53'1 1.9
2017-Nov-18 16:00N 14°27' W 060°54'2 3.5
2017-Nov-18 15:30N 14°25' W 060°54'2 4.1
2017-Nov-18 15:00N 14°24' W 060°53'4 8.7
2017-Nov-18 14:30N 14°28' W 060°52'2 3.5
2017-Nov-18 13:58N 14°26' W 060°53'0 0.0
2017-Nov-18 13:25N 14°26' W 060°53'0 0.0
2017-Nov-18 12:58N 14°26' W 060°53'0 0.1
2017-Nov-18 12:30N 14°26' W 060°53'2 3.4
2017-Nov-18 12:00N 14°25' W 060°54'  
Track history (hours):
 
Tides and Currents Weather Stations Pressure Air Temp Water Temp Dewpoint Dewpoint Depression Visibility Wind Speed Wind Dir Waves Ship Positions

Amiko Rickmers

Last reported at 2017-Nov-20 00:29 UTC. Time now 2017-Nov-20 15:49 UTC.
Position N 14°26' W 060°53'.

; draft 8.8 m.

Type: Cargo ship. MMSI: 538004910.

Date/timePositionNaut miles runAvg speedWind from/ knotsBaromVisibWave heightAir tempDewpointWater temp
2017-Nov-20 00:29N 14°26' W 060°53'0 0.0
2017-Nov-19 23:59N 14°26' W 060°53'0 0.0
2017-Nov-19 23:29N 14°26' W 060°53'0 0.1
2017-Nov-19 23:00N 14°26' W 060°53'0 0.3
2017-Nov-19 22:30N 14°27' W 060°54'2 3.6
2017-Nov-19 21:58N 14°28' W 060°52'0 0.5
2017-Nov-19 21:31N 14°28' W 060°52'0 0.7
2017-Nov-19 21:00N 14°28' W 060°52'2 3.2
2017-Nov-19 20:29N 14°26' W 060°53'0 0.2
2017-Nov-19 20:00N 14°26' W 060°53'0 0.2
2017-Nov-19 19:31N 14°26' W 060°53'0 0.1
2017-Nov-19 19:00N 14°26' W 060°53'0 0.0
2017-Nov-19 18:31N 14°26' W 060°53'0 0.0
2017-Nov-19 18:00N 14°26' W 060°53'0 0.0
2017-Nov-19 17:30N 14°26' W 060°53'0 0.0
2017-Nov-19 17:00N 14°26' W 060°53'0 0.0
2017-Nov-19 16:31N 14°26' W 060°53'0 0.0
2017-Nov-19 15:57N 14°26' W 060°53'0 0.0
2017-Nov-19 15:25N 14°26' W 060°53'0 0.0
2017-Nov-19 15:00N 14°26' W 060°53'0 0.0
2017-Nov-19 14:31N 14°26' W 060°53'0 0.0
2017-Nov-19 13:58N 14°26' W 060°53'0 0.0
2017-Nov-19 13:31N 14°26' W 060°53'0 0.0
2017-Nov-19 13:01N 14°26' W 060°53'0 0.0
2017-Nov-19 12:31N 14°26' W 060°53'0 0.0
2017-Nov-19 12:01N 14°26' W 060°53'0 0.0
2017-Nov-19 11:29N 14°26' W 060°53'0 0.0
2017-Nov-19 11:00N 14°26' W 060°53'0 0.0
2017-Nov-19 10:29N 14°26' W 060°53'0 0.0
2017-Nov-19 09:59N 14°26' W 060°53'0 0.0
2017-Nov-19 09:29N 14°26' W 060°53'0 0.0
2017-Nov-19 08:59N 14°26' W 060°53'0 0.0
2017-Nov-19 08:29N 14°26' W 060°53'0 0.0
2017-Nov-19 07:59N 14°26' W 060°53'0 0.0
2017-Nov-19 07:29N 14°26' W 060°53'0 0.0
2017-Nov-19 06:14N 14°26' W 060°53'0 0.1
2017-Nov-19 05:59N 14°26' W 060°53'0 0.1
2017-Nov-19 05:29N 14°26' W 060°53'0 0.0
2017-Nov-19 04:59N 14°26' W 060°53'0 0.0
2017-Nov-19 04:29N 14°26' W 060°53'0 0.0
2017-Nov-19 03:58N 14°26' W 060°53'0 0.0
2017-Nov-19 03:28N 14°26' W 060°53'0 0.0
2017-Nov-19 02:58N 14°26' W 060°53'2 4.1
2017-Nov-19 02:30N 14°28' W 060°52'0 0.6
2017-Nov-19 02:00N 14°28' W 060°52'1 2.4
2017-Nov-19 01:31N 14°27' W 060°53'1 1.1
2017-Nov-19 01:01N 14°27' W 060°53'2 3.2
2017-Nov-19 00:30N 14°28' W 060°52'2 4.0
2017-Nov-19 00:00N 14°26' W 060°53'0 0.0
2017-Nov-18 23:30N 14°26' W 060°53'0 0.0
2017-Nov-18 23:00N 14°26' W 060°53'0 0.0
2017-Nov-18 22:28N 14°26' W 060°53'0 0.0
2017-Nov-18 21:58N 14°26' W 060°53'0 0.0
2017-Nov-18 21:30N 14°26' W 060°53'0 0.0
2017-Nov-18 21:00N 14°26' W 060°53'0 0.0
2017-Nov-18 20:30N 14°26' W 060°53'0 0.0
2017-Nov-18 20:00N 14°26' W 060°53'1 2.3
2017-Nov-18 19:30N 14°27' W 060°53'1 2.1
2017-Nov-18 18:58N 14°26' W 060°53'0 0.0
2017-Nov-18 18:30N 14°26' W 060°53'0 1.0
2017-Nov-18 18:00N 14°27' W 060°54'0 0.9
2017-Nov-18 17:30N 14°26' W 060°53'0 0.1
2017-Nov-18 17:00N 14°26' W 060°53'0 0.1
2017-Nov-18 16:30N 14°26' W 060°53'1 1.9
2017-Nov-18 16:00N 14°27' W 060°54'2 3.5
2017-Nov-18 15:30N 14°25' W 060°54'2 4.1
2017-Nov-18 15:00N 14°24' W 060°53'4 8.7
2017-Nov-18 14:30N 14°28' W 060°52'2 3.5
2017-Nov-18 13:58N 14°26' W 060°53'0 0.0
2017-Nov-18 13:25N 14°26' W 060°53'0 0.0
2017-Nov-18 12:58N 14°26' W 060°53'0 0.1
2017-Nov-18 12:30N 14°26' W 060°53'2 3.4
2017-Nov-18 12:00N 14°25' W 060°54'  

Dump ship's entire track history